createdAt,value
2024-03-12T00:00:42.767Z,100458.91
2024-03-12T00:01:35.487Z,100454.44
2024-03-12T00:02:26.941Z,100455.41
2024-03-12T00:03:18.525Z,100461.44
2024-03-12T00:04:10.082Z,100462.25
2024-03-12T00:05:09.195Z,100457.16
2024-03-12T00:06:00.977Z,100467.56
2024-03-12T00:06:52.614Z,100463.13
2024-03-12T00:07:44.338Z,100463.97
2024-03-12T00:08:35.777Z,100460.59
2024-03-12T00:09:28.111Z,100465.88
2024-03-12T00:10:22.341Z,100466.75
2024-03-12T00:11:14.873Z,100464.16
2024-03-12T00:12:06.538Z,100471.13
2024-03-12T00:12:59.986Z,100471.19
2024-03-12T00:13:51.463Z,100466.22
2024-03-12T00:14:43.092Z,100474.09
2024-03-12T00:15:37.346Z,100472.22
2024-03-12T00:16:31.698Z,100473.84
2024-03-12T00:17:25.206Z,100480.81
2024-03-12T00:18:17.176Z,100485.91
2024-03-12T00:19:10.500Z,100481.56
2024-03-12T00:20:06.954Z,100484.94
2024-03-12T00:20:58.414Z,100492.00
2024-03-12T00:21:50.652Z,100487.66
2024-03-12T00:22:44.437Z,100488.38
2024-03-12T00:23:35.876Z,100497.88
2024-03-12T00:24:27.330Z,100493.38
2024-03-12T00:25:20.280Z,100492.31
2024-03-12T00:26:11.738Z,100499.25
2024-03-12T00:27:03.247Z,100500.88
2024-03-12T00:27:58.092Z,100500.88
2024-03-12T00:28:49.512Z,100499.25
2024-03-12T00:29:40.967Z,100502.59
2024-03-12T00:30:32.560Z,100501.63
2024-03-12T00:31:23.973Z,100500.78
2024-03-12T00:32:18.199Z,100497.34
2024-03-12T00:33:09.711Z,100497.28
2024-03-12T00:34:01.463Z,100502.44
2024-03-12T00:34:53.043Z,100499.78
2024-03-12T00:35:47.086Z,100505.03
2024-03-12T00:36:38.568Z,100501.56
2024-03-12T00:37:30.108Z,100501.63
2024-03-12T00:38:21.524Z,100502.59
2024-03-12T00:39:13.247Z,100506.97
2024-03-12T00:40:12.581Z,100503.31
2024-03-12T00:41:04.773Z,100501.63
2024-03-12T00:41:57.533Z,100500.84
2024-03-12T00:42:51.552Z,100505.19
2024-03-12T00:43:43.478Z,100511.16
2024-03-12T00:44:36.046Z,100513.69
2024-03-12T00:45:30.814Z,100498.03
2024-03-12T00:46:22.335Z,100506.75
2024-03-12T00:47:13.733Z,100508.50
2024-03-12T00:48:07.363Z,100507.59
2024-03-12T00:48:59.037Z,100510.31
2024-03-12T00:49:51.817Z,100512.16
2024-03-12T00:50:46.158Z,100512.38
2024-03-12T00:51:37.615Z,100513.22
2024-03-12T00:52:29.071Z,100515.72
2024-03-12T00:53:20.535Z,100513.13
2024-03-12T00:54:11.981Z,100513.03
2024-03-12T00:55:05.075Z,100516.41
2024-03-12T00:55:56.593Z,100516.38
2024-03-12T00:56:50.666Z,100515.41
2024-03-12T00:57:43.885Z,100514.53
2024-03-12T00:58:37.517Z,100519.72
2024-03-12T00:59:30.230Z,100517.88
2024-03-12T01:00:26.862Z,100525.63
2024-03-12T01:01:18.869Z,100522.22
2024-03-12T01:02:13.628Z,100518.78
2024-03-12T01:03:09.284Z,100525.69
2024-03-12T01:04:01.516Z,100529.22
2024-03-12T01:04:56.706Z,100526.56
2024-03-12T01:05:49.625Z,100529.25
2024-03-12T01:06:41.075Z,100530.22
2024-03-12T01:07:34.093Z,100531.22
2024-03-12T01:08:25.606Z,100527.88
2024-03-12T01:09:18.290Z,100532.09
2024-03-12T01:10:10.128Z,100531.28
2024-03-12T01:11:01.619Z,100527.69
2024-03-12T01:11:54.105Z,100530.91
2024-03-12T01:12:45.519Z,100536.16
2024-03-12T01:13:37.368Z,100534.31
2024-03-12T01:14:28.840Z,100536.09
2024-03-12T01:15:24.606Z,100537.84
2024-03-12T01:16:16.072Z,100535.25
2024-03-12T01:17:07.589Z,100537.81
2024-03-12T01:17:59.076Z,100537.69
2024-03-12T01:18:51.381Z,100538.31
2024-03-12T01:19:43.109Z,100542.69
2024-03-12T01:20:36.141Z,100543.72
2024-03-12T01:21:27.789Z,100546.38
2024-03-12T01:22:20.860Z,100540.41
2024-03-12T01:23:14.530Z,100545.69
2024-03-12T01:24:06.507Z,100543.13
2024-03-12T01:24:59.156Z,100546.59
2024-03-12T01:25:51.257Z,100542.13
2024-03-12T01:26:43.033Z,100539.66
2024-03-12T01:27:35.576Z,100545.91
2024-03-12T01:28:27.049Z,100541.16
2024-03-12T01:29:18.946Z,100544.63
2024-03-12T01:30:21.041Z,100544.72
2024-03-12T01:31:12.627Z,100536.06
2024-03-12T01:32:07.795Z,100549.91
2024-03-12T01:32:59.628Z,100549.91
2024-03-12T01:33:51.307Z,100548.13
2024-03-12T01:34:44.064Z,100551.63
2024-03-12T01:35:39.205Z,100548.31
2024-03-12T01:36:35.698Z,100543.78
2024-03-12T01:37:27.559Z,100546.13
2024-03-12T01:38:19.402Z,100553.97
2024-03-12T01:39:10.955Z,100553.13
2024-03-12T01:40:11.296Z,100547.72
2024-03-12T01:41:06.226Z,100554.75
2024-03-12T01:41:57.627Z,100562.56
2024-03-12T01:42:55.009Z,100557.31
2024-03-12T01:43:56.120Z,100560.00
2024-03-12T01:44:47.560Z,100547.84
2024-03-12T01:45:39.247Z,100551.38
2024-03-12T01:46:32.548Z,100550.44
2024-03-12T01:47:25.710Z,100554.72
2024-03-12T01:48:17.252Z,100553.78
2024-03-12T01:49:10.316Z,100554.47
2024-03-12T01:50:03.484Z,100562.25
2024-03-12T01:50:55.348Z,100557.75
2024-03-12T01:51:46.823Z,100559.56
2024-03-12T01:52:38.422Z,100568.22
2024-03-12T01:53:30.726Z,100560.66
2024-03-12T01:54:22.211Z,100559.84
2024-03-12T01:55:15.324Z,100561.50
2024-03-12T01:56:06.807Z,100565.94
2024-03-12T01:56:58.206Z,100560.81
2024-03-12T01:57:52.934Z,100564.34
2024-03-12T01:58:45.370Z,100562.78
2024-03-12T01:59:37.127Z,100555.81
2024-03-12T02:00:30.284Z,100557.47
2024-03-12T02:01:22.120Z,100559.25
2024-03-12T02:02:17.891Z,100560.19
2024-03-12T02:03:10.292Z,100562.91
2024-03-12T02:04:01.900Z,100563.50
2024-03-12T02:04:53.390Z,100560.81
2024-03-12T02:05:47.521Z,100562.56
2024-03-12T02:06:39.843Z,100563.44
2024-03-12T02:07:31.655Z,100567.75
2024-03-12T02:08:23.314Z,100569.44
2024-03-12T02:09:16.041Z,100568.72
2024-03-12T02:10:11.028Z,100572.19
2024-03-12T02:11:02.574Z,100564.44
2024-03-12T02:11:53.993Z,100568.53
2024-03-12T02:12:46.296Z,100571.88
2024-03-12T02:13:37.710Z,100570.13
2024-03-12T02:14:29.151Z,100571.97
2024-03-12T02:15:23.762Z,100577.22
2024-03-12T02:16:15.595Z,100576.88
2024-03-12T02:17:07.190Z,100574.41
2024-03-12T02:17:58.685Z,100582.31
2024-03-12T02:18:50.283Z,100577.16
2024-03-12T02:19:41.776Z,100579.47
2024-03-12T02:20:33.168Z,100575.06
2024-03-12T02:21:25.860Z,100581.06
2024-03-12T02:22:17.363Z,100581.81
2024-03-12T02:23:08.787Z,100585.03
2024-03-12T02:24:00.673Z,100586.06
2024-03-12T02:24:53.495Z,100587.72
2024-03-12T02:25:44.917Z,100587.72
2024-03-12T02:26:36.385Z,100597.28
2024-03-12T02:27:27.844Z,100597.28
2024-03-12T02:28:19.278Z,100588.75
2024-03-12T02:29:11.467Z,100588.09
2024-03-12T02:30:03.531Z,100591.69
2024-03-12T02:30:55.067Z,100590.75
2024-03-12T02:31:47.288Z,100583.00
2024-03-12T02:32:42.009Z,100584.84
2024-03-12T02:33:33.966Z,100589.09
2024-03-12T02:34:25.827Z,100590.91
2024-03-12T02:35:18.224Z,100593.69
2024-03-12T02:36:10.687Z,100595.47
2024-03-12T02:37:03.702Z,100588.69
2024-03-12T02:37:55.225Z,100586.81
2024-03-12T02:38:47.162Z,100592.75
2024-03-12T02:39:38.575Z,100594.44
2024-03-12T02:40:29.973Z,100590.91
2024-03-12T02:41:22.968Z,100594.28
2024-03-12T02:42:14.445Z,100602.09
2024-03-12T02:43:06.971Z,100601.31
2024-03-12T02:43:58.457Z,100600.63
2024-03-12T02:44:49.965Z,100604.88
2024-03-12T02:45:43.301Z,100610.16
2024-03-12T02:46:34.795Z,100606.31
2024-03-12T02:47:27.991Z,100598.47
2024-03-12T02:48:19.491Z,100605.56
2024-03-12T02:49:11.798Z,100603.03
2024-03-12T02:50:03.435Z,100615.19
2024-03-12T02:50:54.823Z,100605.66
2024-03-12T02:51:47.071Z,100610.06
2024-03-12T02:52:39.170Z,100604.97
2024-03-12T02:53:30.681Z,100616.09
2024-03-12T02:54:22.774Z,100610.06
2024-03-12T02:55:15.429Z,100615.88
2024-03-12T02:56:07.468Z,100614.09
2024-03-12T02:56:59.408Z,100616.84
2024-03-12T02:57:50.889Z,100613.16
2024-03-12T02:58:43.834Z,100613.06
2024-03-12T02:59:35.897Z,100608.63
2024-03-12T03:00:27.384Z,100614.81
2024-03-12T03:01:18.988Z,100615.75
2024-03-12T03:02:13.742Z,100617.69
2024-03-12T03:03:05.509Z,100615.88
2024-03-12T03:03:58.591Z,100614.84
2024-03-12T03:04:50.889Z,100616.34
2024-03-12T03:05:44.624Z,100615.41
2024-03-12T03:06:36.497Z,100615.41
2024-03-12T03:07:28.019Z,100619.03
2024-03-12T03:08:19.694Z,100618.28
2024-03-12T03:09:11.717Z,100627.03
2024-03-12T03:10:04.480Z,100622.84
2024-03-12T03:10:56.067Z,100619.34
2024-03-12T03:11:47.543Z,100622.13
2024-03-12T03:12:38.983Z,100620.44
2024-03-12T03:13:30.686Z,100625.03
2024-03-12T03:14:22.521Z,100622.19
2024-03-12T03:15:14.901Z,100618.84
2024-03-12T03:16:07.402Z,100622.03
2024-03-12T03:16:58.951Z,100622.94
2024-03-12T03:17:50.541Z,100622.00
2024-03-12T03:18:42.207Z,100622.03
2024-03-12T03:19:33.822Z,100625.28
2024-03-12T03:20:25.288Z,100626.13
2024-03-12T03:21:16.739Z,100622.03
2024-03-12T03:22:08.851Z,100620.13
2024-03-12T03:23:00.369Z,100619.94
2024-03-12T03:23:52.250Z,100625.09
2024-03-12T03:24:44.180Z,100624.09
2024-03-12T03:25:35.613Z,100618.09
2024-03-12T03:26:27.120Z,100628.53
2024-03-12T03:27:18.508Z,100625.09
2024-03-12T03:28:10.022Z,100627.81
2024-03-12T03:29:01.462Z,100623.63
2024-03-12T03:29:57.771Z,100628.78
2024-03-12T03:30:50.802Z,100623.56
2024-03-12T03:31:42.531Z,100625.84
2024-03-12T03:32:36.323Z,100634.44
2024-03-12T03:33:28.191Z,100633.56
2024-03-12T03:34:19.634Z,100624.94
2024-03-12T03:35:12.203Z,100623.34
2024-03-12T03:36:04.985Z,100628.56
2024-03-12T03:36:57.109Z,100628.47
2024-03-12T03:37:48.718Z,100628.53
2024-03-12T03:38:41.642Z,100637.72
2024-03-12T03:39:36.781Z,100635.03
2024-03-12T03:40:29.412Z,100632.25
2024-03-12T03:41:20.913Z,100628.94
2024-03-12T03:42:12.326Z,100631.59
2024-03-12T03:43:03.867Z,100641.81
2024-03-12T03:43:55.273Z,100639.22
2024-03-12T03:44:47.269Z,100636.63
2024-03-12T03:45:38.759Z,100644.38
2024-03-12T03:46:30.555Z,100641.09
2024-03-12T03:47:22.048Z,100641.13
2024-03-12T03:48:13.459Z,100641.38
2024-03-12T03:49:05.117Z,100642.31
2024-03-12T03:49:56.636Z,100638.97
2024-03-12T03:50:48.105Z,100642.50
2024-03-12T03:51:39.631Z,100635.50
2024-03-12T03:52:31.072Z,100639.81
2024-03-12T03:53:22.830Z,100637.16
2024-03-12T03:54:14.255Z,100640.56
2024-03-12T03:55:10.399Z,100645.56
2024-03-12T03:56:03.218Z,100649.00
2024-03-12T03:56:54.605Z,100658.53
2024-03-12T03:57:47.057Z,100653.22
2024-03-12T03:58:38.479Z,100653.25
2024-03-12T03:59:32.063Z,100654.97
2024-03-12T04:00:29.579Z,100656.00
2024-03-12T04:01:21.867Z,100660.44
2024-03-12T04:02:17.725Z,100664.97
2024-03-12T04:03:10.254Z,100651.88
2024-03-12T04:04:11.763Z,100657.75
2024-03-12T04:05:03.836Z,100651.69
2024-03-12T04:05:57.821Z,100662.84
2024-03-12T04:06:51.031Z,100663.72
2024-03-12T04:07:45.333Z,100674.06
2024-03-12T04:08:37.103Z,100669.63
2024-03-12T04:09:28.587Z,100669.78
2024-03-12T04:10:20.357Z,100672.41
2024-03-12T04:11:11.942Z,100666.56
2024-03-12T04:12:05.604Z,100668.13
2024-03-12T04:12:57.462Z,100676.94
2024-03-12T04:13:50.363Z,100671.78
2024-03-12T04:14:42.814Z,100678.59
2024-03-12T04:15:34.998Z,100675.00
2024-03-12T04:16:26.693Z,100675.84
2024-03-12T04:17:20.048Z,100682.00
2024-03-12T04:18:12.795Z,100685.56
2024-03-12T04:19:05.886Z,100683.66
2024-03-12T04:19:57.363Z,100681.81
2024-03-12T04:20:48.790Z,100686.00
2024-03-12T04:21:40.668Z,100696.31
2024-03-12T04:22:32.269Z,100686.06
2024-03-12T04:23:23.823Z,100688.78
2024-03-12T04:24:15.368Z,100688.84
2024-03-12T04:25:08.939Z,100694.13
2024-03-12T04:26:00.508Z,100692.28
2024-03-12T04:26:52.276Z,100686.16
2024-03-12T04:27:43.736Z,100693.97
2024-03-12T04:28:37.493Z,100697.59
2024-03-12T04:29:29.182Z,100695.00
2024-03-12T04:30:20.669Z,100695.19
2024-03-12T04:31:12.428Z,100699.63
2024-03-12T04:32:04.219Z,100702.28
2024-03-12T04:32:55.755Z,100699.31
2024-03-12T04:33:48.007Z,100706.94
2024-03-12T04:34:39.442Z,100698.41
2024-03-12T04:35:30.854Z,100703.59
2024-03-12T04:36:25.670Z,100707.94
2024-03-12T04:37:17.567Z,100709.78
2024-03-12T04:38:09.172Z,100709.53
2024-03-12T04:39:00.666Z,100705.16
2024-03-12T04:39:52.516Z,100711.19
2024-03-12T04:40:43.960Z,100712.31
2024-03-12T04:41:35.370Z,100706.34
2024-03-12T04:42:28.272Z,100705.31
2024-03-12T04:43:20.058Z,100711.28
2024-03-12T04:44:12.272Z,100709.59
2024-03-12T04:45:07.840Z,100712.94
2024-03-12T04:45:59.571Z,100715.41
2024-03-12T04:46:51.025Z,100717.94
2024-03-12T04:47:43.412Z,100713.47
2024-03-12T04:48:35.478Z,100708.56
2024-03-12T04:49:27.620Z,100717.94
2024-03-12T04:50:23.630Z,100718.69
2024-03-12T04:51:15.434Z,100723.22
2024-03-12T04:52:07.182Z,100717.00
2024-03-12T04:52:58.605Z,100719.63
2024-03-12T04:53:50.032Z,100714.88
2024-03-12T04:54:41.429Z,100717.47
2024-03-12T04:55:35.928Z,100722.41
2024-03-12T04:56:27.289Z,100719.84
2024-03-12T04:57:18.876Z,100721.50
2024-03-12T04:58:10.553Z,100724.88
2024-03-12T04:59:02.017Z,100727.69
2024-03-12T04:59:53.449Z,100732.19
2024-03-12T05:00:44.938Z,100733.06
2024-03-12T05:01:36.526Z,100731.31
2024-03-12T05:02:28.095Z,100738.19
2024-03-12T05:03:19.834Z,100740.88
2024-03-12T05:04:18.529Z,100732.91
2024-03-12T05:05:15.547Z,100736.41
2024-03-12T05:06:08.301Z,100740.03
2024-03-12T05:06:59.721Z,100740.16
2024-03-12T05:07:51.805Z,100742.00
2024-03-12T05:08:44.367Z,100745.66
2024-03-12T05:09:35.789Z,100747.50
2024-03-12T05:10:28.035Z,100750.13
2024-03-12T05:11:20.348Z,100739.56
2024-03-12T05:12:11.817Z,100742.91
2024-03-12T05:13:03.301Z,100750.59
2024-03-12T05:13:54.767Z,100746.03
2024-03-12T05:14:46.220Z,100754.66
2024-03-12T05:15:37.737Z,100754.31
2024-03-12T05:16:29.480Z,100761.50
2024-03-12T05:17:20.901Z,100756.22
2024-03-12T05:18:12.727Z,100756.22
2024-03-12T05:19:04.321Z,100752.88
2024-03-12T05:19:56.944Z,100758.78
2024-03-12T05:20:48.413Z,100754.56
2024-03-12T05:21:39.973Z,100755.59
2024-03-12T05:22:31.468Z,100764.09
2024-03-12T05:23:24.401Z,100758.19
2024-03-12T05:24:18.933Z,100762.59
2024-03-12T05:25:19.907Z,100761.69
2024-03-12T05:26:12.646Z,100764.34
2024-03-12T05:27:05.184Z,100771.22
2024-03-12T05:27:58.221Z,100764.25
2024-03-12T05:28:49.801Z,100773.50
2024-03-12T05:29:44.446Z,100776.28
2024-03-12T05:30:41.876Z,100775.28
2024-03-12T05:31:39.329Z,100781.28
2024-03-12T05:32:31.032Z,100776.22
2024-03-12T05:33:29.105Z,100771.53
2024-03-12T05:34:29.999Z,100780.06
2024-03-12T05:35:22.785Z,100774.25
2024-03-12T05:36:15.681Z,100776.72
2024-03-12T05:37:16.942Z,100780.22
2024-03-12T05:38:11.383Z,100776.63
2024-03-12T05:39:06.069Z,100789.09
2024-03-12T05:40:16.251Z,100775.50
2024-03-12T05:41:10.742Z,100789.16
2024-03-12T05:42:20.929Z,100791.16
2024-03-12T05:43:31.488Z,100790.34
2024-03-12T05:44:41.370Z,100788.53
2024-03-12T05:45:51.540Z,100786.94
2024-03-12T05:47:01.894Z,100794.31
2024-03-12T05:48:08.839Z,100797.78
2024-03-12T05:49:00.374Z,100797.06
2024-03-12T05:49:51.827Z,100797.16
2024-03-12T05:50:43.319Z,100798.72
2024-03-12T05:51:37.237Z,100802.09
2024-03-12T05:52:28.654Z,100797.84
2024-03-12T05:53:20.771Z,100804.78
2024-03-12T05:54:12.386Z,100795.16
2024-03-12T05:55:04.284Z,100802.97
2024-03-12T05:55:56.309Z,100802.84
2024-03-12T05:56:47.777Z,100809.91
2024-03-12T05:57:39.389Z,100809.03
2024-03-12T05:58:31.621Z,100803.03
2024-03-12T05:59:23.820Z,100807.31
2024-03-12T06:00:15.390Z,100813.88
2024-03-12T06:01:07.273Z,100809.78
2024-03-12T06:01:59.223Z,100811.50
2024-03-12T06:02:50.822Z,100815.41
2024-03-12T06:03:42.369Z,100809.38
2024-03-12T06:04:33.884Z,100811.13
2024-03-12T06:05:25.511Z,100813.88
2024-03-12T06:06:18.836Z,100811.22
2024-03-12T06:07:10.375Z,100810.22
2024-03-12T06:08:01.838Z,100821.16
2024-03-12T06:08:53.293Z,100813.53
2024-03-12T06:09:44.757Z,100817.00
2024-03-12T06:10:36.263Z,100816.41
2024-03-12T06:11:28.542Z,100821.66
2024-03-12T06:12:20.063Z,100822.31
2024-03-12T06:13:13.213Z,100828.59
2024-03-12T06:14:07.670Z,100823.53
2024-03-12T06:15:00.053Z,100826.97
2024-03-12T06:15:52.273Z,100836.41
2024-03-12T06:16:46.075Z,100832.16
2024-03-12T06:17:37.989Z,100832.16
2024-03-12T06:18:29.936Z,100835.84
2024-03-12T06:19:21.537Z,100832.44
2024-03-12T06:20:16.793Z,100835.06
2024-03-12T06:21:08.357Z,100836.00
2024-03-12T06:21:59.907Z,100834.13
2024-03-12T06:22:51.387Z,100838.44
2024-03-12T06:23:43.181Z,100847.19
2024-03-12T06:24:35.112Z,100841.97
2024-03-12T06:25:27.063Z,100841.06
2024-03-12T06:26:18.865Z,100836.72
2024-03-12T06:27:10.734Z,100838.75
2024-03-12T06:28:06.419Z,100845.69
2024-03-12T06:28:58.077Z,100835.97
2024-03-12T06:29:53.146Z,100843.88
2024-03-12T06:30:44.923Z,100845.72
2024-03-12T06:31:36.501Z,100843.31
2024-03-12T06:32:32.348Z,100848.53
2024-03-12T06:33:23.973Z,100851.09
2024-03-12T06:34:16.401Z,100846.09
2024-03-12T06:35:09.266Z,100851.19
2024-03-12T06:36:00.811Z,100842.47
2024-03-12T06:36:58.533Z,100854.69
2024-03-12T06:37:50.030Z,100848.59
2024-03-12T06:38:42.193Z,100854.63
2024-03-12T06:39:33.695Z,100856.19
2024-03-12T06:40:26.433Z,100858.38
2024-03-12T06:41:17.898Z,100847.25
2024-03-12T06:42:13.222Z,100859.19
2024-03-12T06:43:04.955Z,100855.75
2024-03-12T06:43:56.448Z,100855.34
2024-03-12T06:44:48.839Z,100854.31
2024-03-12T06:45:41.608Z,100855.25
2024-03-12T06:46:34.016Z,100864.03
2024-03-12T06:47:25.771Z,100859.59
2024-03-12T06:48:19.310Z,100863.88
2024-03-12T06:49:13.319Z,100868.13
2024-03-12T06:50:09.213Z,100872.47
2024-03-12T06:51:01.445Z,100874.25
2024-03-12T06:51:54.877Z,100874.38
2024-03-12T06:52:49.925Z,100873.59
2024-03-12T06:53:41.357Z,100874.59
2024-03-12T06:54:37.733Z,100880.75
2024-03-12T06:55:29.308Z,100878.34
2024-03-12T06:56:22.980Z,100887.03
2024-03-12T06:57:15.375Z,100886.22
2024-03-12T06:58:12.350Z,100888.84
2024-03-12T06:59:04.142Z,100887.75
2024-03-12T06:59:56.458Z,100885.09
2024-03-12T07:00:51.308Z,100891.31
2024-03-12T07:01:43.820Z,100894.03
2024-03-12T07:02:39.252Z,100893.19
2024-03-12T07:03:32.348Z,100891.94
2024-03-12T07:04:35.749Z,100892.84
2024-03-12T07:05:30.360Z,100901.03
2024-03-12T07:06:22.770Z,100901.63
2024-03-12T07:07:19.522Z,100907.66
2024-03-12T07:08:11.438Z,100902.69
2024-03-12T07:09:11.191Z,100902.97
2024-03-12T07:10:05.205Z,100903.91
2024-03-12T07:10:56.955Z,100903.72
2024-03-12T07:11:48.547Z,100909.56
2024-03-12T07:12:40.604Z,100912.09
2024-03-12T07:13:32.125Z,100917.28
2024-03-12T07:14:31.772Z,100913.88
2024-03-12T07:15:23.210Z,100917.88
2024-03-12T07:16:14.974Z,100918.13
2024-03-12T07:17:08.872Z,100916.44
2024-03-12T07:18:00.675Z,100920.88
2024-03-12T07:18:52.388Z,100926.00
2024-03-12T07:19:44.187Z,100916.34
2024-03-12T07:20:36.325Z,100919.88
2024-03-12T07:21:27.932Z,100924.31
2024-03-12T07:22:19.596Z,100920.78
2024-03-12T07:23:11.249Z,100917.47
2024-03-12T07:24:04.755Z,100927.66
2024-03-12T07:24:56.881Z,100929.56
2024-03-12T07:25:48.820Z,100930.50
2024-03-12T07:26:40.335Z,100935.91
2024-03-12T07:27:31.828Z,100930.75
2024-03-12T07:28:24.988Z,100932.41
2024-03-12T07:29:16.774Z,100933.34
2024-03-12T07:30:10.784Z,100934.28
2024-03-12T07:31:04.166Z,100938.81
2024-03-12T07:31:56.607Z,100940.81
2024-03-12T07:32:48.262Z,100937.47
2024-03-12T07:33:40.113Z,100933.94
2024-03-12T07:34:32.336Z,100941.00
2024-03-12T07:35:23.852Z,100939.16
2024-03-12T07:36:16.839Z,100931.34
2024-03-12T07:37:08.443Z,100936.53
2024-03-12T07:38:01.500Z,100941.00
2024-03-12T07:38:53.716Z,100942.91
2024-03-12T07:39:45.130Z,100946.44
2024-03-12T07:40:39.073Z,100945.63
2024-03-12T07:41:31.469Z,100944.84
2024-03-12T07:42:22.985Z,100943.31
2024-03-12T07:43:15.211Z,100939.72
2024-03-12T07:44:07.232Z,100945.56
2024-03-12T07:44:59.091Z,100946.56
2024-03-12T07:45:50.909Z,100943.63
2024-03-12T07:46:44.226Z,100935.53
2024-03-12T07:47:36.472Z,100940.81
2024-03-12T07:48:28.174Z,100938.34
2024-03-12T07:49:22.777Z,100947.03
2024-03-12T07:50:15.024Z,100946.28
2024-03-12T07:51:10.261Z,100948.59
2024-03-12T07:52:01.755Z,100944.94
2024-03-12T07:52:53.282Z,100953.00
2024-03-12T07:53:45.576Z,100947.75
2024-03-12T07:54:37.032Z,100946.28
2024-03-12T07:55:29.119Z,100944.31
2024-03-12T07:56:23.488Z,100949.53
2024-03-12T07:57:19.466Z,100948.81
2024-03-12T07:58:13.547Z,100950.25
2024-03-12T07:59:05.565Z,100942.47
2024-03-12T07:59:58.947Z,100956.38
2024-03-12T08:00:50.425Z,100949.78
2024-03-12T08:01:41.830Z,100958.19
2024-03-12T08:02:33.325Z,100944.53
2024-03-12T08:03:25.457Z,100953.44
2024-03-12T08:04:17.859Z,100948.25
2024-03-12T08:05:09.349Z,100955.34
2024-03-12T08:06:00.912Z,100953.34
2024-03-12T08:06:53.778Z,100951.47
2024-03-12T08:07:45.931Z,100942.78
2024-03-12T08:08:37.344Z,100953.78
2024-03-12T08:09:28.763Z,100958.38
2024-03-12T08:10:20.351Z,100955.78
2024-03-12T08:11:11.941Z,100955.19
2024-03-12T08:12:03.728Z,100962.19
2024-03-12T08:12:55.221Z,100958.53
2024-03-12T08:13:49.314Z,100961.00
2024-03-12T08:14:41.297Z,100955.00
2024-03-12T08:15:33.100Z,100962.13
2024-03-12T08:16:24.643Z,100966.41
2024-03-12T08:17:16.634Z,100963.78
2024-03-12T08:18:13.576Z,100972.25
2024-03-12T08:19:12.940Z,100956.72
2024-03-12T08:20:06.762Z,100964.53
2024-03-12T08:20:58.298Z,100965.38
2024-03-12T08:21:50.457Z,100957.38
2024-03-12T08:22:41.884Z,100962.53
2024-03-12T08:23:33.298Z,100958.59
2024-03-12T08:24:26.610Z,100960.38
2024-03-12T08:25:21.726Z,100966.25
2024-03-12T08:26:13.602Z,100963.06
2024-03-12T08:27:05.975Z,100970.81
2024-03-12T08:27:57.367Z,100966.63
2024-03-12T08:28:48.909Z,100969.88
2024-03-12T08:29:40.417Z,100975.19
2024-03-12T08:30:33.767Z,100975.50
2024-03-12T08:31:33.142Z,100972.91
2024-03-12T08:32:30.718Z,100971.38
2024-03-12T08:33:22.255Z,100975.38
2024-03-12T08:34:16.593Z,100968.53
2024-03-12T08:35:10.009Z,100973.19
2024-03-12T08:36:02.298Z,100972.59
2024-03-12T08:36:53.938Z,100978.81
2024-03-12T08:37:45.921Z,100981.63
2024-03-12T08:38:37.781Z,100983.41
2024-03-12T08:39:29.816Z,100980.81
2024-03-12T08:40:21.662Z,100974.81
2024-03-12T08:41:13.246Z,100983.72
2024-03-12T08:42:05.218Z,100984.53
2024-03-12T08:43:03.981Z,100981.06
2024-03-12T08:43:57.456Z,100986.47
2024-03-12T08:44:49.373Z,100990.88
2024-03-12T08:45:40.989Z,100985.53
2024-03-12T08:46:34.065Z,100991.31
2024-03-12T08:47:26.391Z,100991.53
2024-03-12T08:48:18.035Z,100988.94
2024-03-12T08:49:12.243Z,100993.19
2024-03-12T08:50:04.581Z,100991.25
2024-03-12T08:50:57.292Z,100990.47
2024-03-12T08:51:48.794Z,100991.41
2024-03-12T08:52:40.415Z,100998.47
2024-03-12T08:53:31.964Z,100992.91
2024-03-12T08:54:23.406Z,100998.34
2024-03-12T08:55:15.056Z,101002.00
2024-03-12T08:56:06.893Z,101003.00
2024-03-12T08:56:58.286Z,100993.66
2024-03-12T08:57:49.805Z,101005.81
2024-03-12T08:58:41.195Z,101007.78
2024-03-12T08:59:32.762Z,101005.81
2024-03-12T09:00:25.711Z,100998.44
2024-03-12T09:01:19.361Z,100998.44
2024-03-12T09:02:11.770Z,101001.97
2024-03-12T09:03:03.625Z,100997.81
2024-03-12T09:03:55.094Z,101007.47
2024-03-12T09:04:46.714Z,101002.19
2024-03-12T09:05:38.889Z,101007.97
2024-03-12T09:06:30.922Z,100998.88
2024-03-12T09:07:22.998Z,101006.75
2024-03-12T09:08:14.605Z,100997.78
2024-03-12T09:09:06.276Z,101010.91
2024-03-12T09:09:59.609Z,101014.38
2024-03-12T09:10:51.136Z,101005.81
2024-03-12T09:11:43.204Z,101009.25
2024-03-12T09:12:34.634Z,101016.97
2024-03-12T09:13:27.267Z,101012.53
2024-03-12T09:14:19.512Z,101010.06
2024-03-12T09:15:11.395Z,101010.59
2024-03-12T09:16:03.221Z,101008.50
2024-03-12T09:16:54.700Z,101003.09
2024-03-12T09:17:47.065Z,101008.69
2024-03-12T09:18:38.712Z,101012.44
2024-03-12T09:19:30.115Z,101014.94
2024-03-12T09:20:22.863Z,101010.75
2024-03-12T09:21:15.326Z,101007.31
2024-03-12T09:22:06.782Z,101013.91
2024-03-12T09:22:58.274Z,101012.91
2024-03-12T09:23:56.945Z,101014.56
2024-03-12T09:24:54.818Z,101010.34
2024-03-12T09:25:46.373Z,101012.13
2024-03-12T09:26:37.793Z,101010.50
2024-03-12T09:27:29.962Z,101016.16
2024-03-12T09:28:22.433Z,101013.59
2024-03-12T09:29:14.125Z,101015.38
2024-03-12T09:30:08.730Z,101010.13
2024-03-12T09:31:00.358Z,101012.88
2024-03-12T09:31:52.038Z,101011.22
2024-03-12T09:32:45.216Z,101012.84
2024-03-12T09:33:37.355Z,101015.69
2024-03-12T09:34:28.782Z,101011.19
2024-03-12T09:35:20.269Z,101014.72
2024-03-12T09:36:15.108Z,101019.06
2024-03-12T09:37:08.431Z,101015.88
2024-03-12T09:38:02.042Z,101016.09
2024-03-12T09:38:54.471Z,101017.22
2024-03-12T09:39:46.025Z,101014.72
2024-03-12T09:40:43.556Z,101013.69
2024-03-12T09:41:35.097Z,101013.00
2024-03-12T09:42:28.540Z,101021.13
2024-03-12T09:43:25.049Z,101012.72
2024-03-12T09:44:17.670Z,101024.06
2024-03-12T09:45:09.778Z,101023.34
2024-03-12T09:46:05.057Z,101019.81
2024-03-12T09:46:57.429Z,101018.03
2024-03-12T09:47:49.904Z,101017.97
2024-03-12T09:48:43.754Z,101018.78
2024-03-12T09:49:36.376Z,101015.88
2024-03-12T09:50:30.301Z,101020.88
2024-03-12T09:51:25.054Z,101017.84
2024-03-12T09:52:17.127Z,101018.53
2024-03-12T09:53:12.197Z,101016.19
2024-03-12T09:54:05.081Z,101021.38
2024-03-12T09:54:57.296Z,101022.06
2024-03-12T09:55:49.422Z,101019.22
2024-03-12T09:56:41.977Z,101020.22
2024-03-12T09:57:34.542Z,101017.75
2024-03-12T09:58:26.191Z,101017.13
2024-03-12T09:59:17.640Z,101019.94
2024-03-12T10:00:13.047Z,101026.06
2024-03-12T10:01:05.295Z,101026.66
2024-03-12T10:01:56.817Z,101020.44
2024-03-12T10:02:51.856Z,101024.28